Time;durP1;ratioP1;P1;durP2;ratioP2;P2;SDS_P1;SDS_P2;PMS_P1;PMS_P2;Temp;Humidity;BMP_temperature;BMP_pressure;BME280_temperature;BME280_humidity;BME280_pressure;Samples;Min_cycle;Max_cycle;Signal;HPM_P1;HPM_P2
2023/06/14 00:00:31;;;;;;;2.22;1.70;;;;;;;18.24;100.00;100125.22;5042478;28;20026;-74
2023/06/14 00:02:56;;;;;;;2.95;2.13;;;;;;;18.15;100.00;100121.13;5047154;28;20469;-73
2023/06/14 00:05:23;;;;;;;3.22;2.08;;;;;;;18.02;100.00;100118.50;5045881;28;20048;-74
2023/06/14 00:07:49;;;;;;;2.17;1.70;;;;;;;17.89;100.00;100116.66;5039425;28;20047;-74
2023/06/14 00:11:10;;;;;;;2.40;2.00;;;;;;;17.76;100.00;100110.56;5045857;28;20469;-74
2023/06/14 00:13:35;;;;;;;3.47;2.40;;;;;;;17.63;100.00;100113.94;5047091;28;20029;-75
2023/06/14 00:16:01;;;;;;;3.75;2.42;;;;;;;17.59;100.00;100115.34;5042172;28;20035;-74
2023/06/14 00:18:29;;;;;;;3.97;2.03;;;;;;;17.50;100.00;100114.69;5043589;28;20064;-74
2023/06/14 00:20:55;;;;;;;5.93;2.63;;;;;;;17.55;100.00;100103.56;5047107;28;20025;-74
2023/06/14 00:23:21;;;;;;;5.03;2.45;;;;;;;17.46;100.00;100095.06;5038546;28;20056;-74
2023/06/14 00:25:47;;;;;;;5.45;2.85;;;;;;;17.37;100.00;100103.31;5038734;28;20025;-74
2023/06/14 00:28:12;;;;;;;6.22;2.67;;;;;;;17.29;100.00;100093.78;5047149;28;20033;-75
2023/06/14 00:30:38;;;;;;;8.85;3.20;;;;;;;17.19;100.00;100094.13;5044409;28;20214;-74
2023/06/14 00:33:04;;;;;;;4.85;3.20;;;;;;;17.15;100.00;100092.09;5046774;28;20029;-74
2023/06/14 00:35:29;;;;;;;9.35;2.95;;;;;;;17.11;100.00;100098.75;5046207;28;20048;-74
2023/06/14 00:37:55;;;;;;;6.47;2.60;;;;;;;17.05;100.00;100099.53;5054509;28;20032;-74
2023/06/14 00:40:21;;;;;;;7.32;2.17;;;;;;;16.95;100.00;100092.03;5043215;28;20029;-75
2023/06/14 00:42:47;;;;;;;3.58;2.00;;;;;;;17.19;100.00;100094.13;5042688;28;20028;-75
2023/06/14 00:45:12;;;;;;;4.00;1.92;;;;;;;17.48;100.00;100087.78;5048116;28;20396;-75
2023/06/14 00:47:40;;;;;;;4.35;2.55;;;;;;;17.58;100.00;100082.91;5045478;28;20792;-74
2023/06/14 00:50:09;;;;;;;5.20;2.38;;;;;;;17.62;100.00;100080.69;5043101;28;20036;-75
2023/06/14 00:52:36;;;;;;;2.30;1.75;;;;;;;17.73;100.00;100076.69;5038790;28;20033;-75
2023/06/14 00:55:01;;;;;;;2.67;1.88;;;;;;;17.78;100.00;100077.72;5033863;28;20116;-74
2023/06/14 00:57:27;;;;;;;3.00;1.30;;;;;;;17.80;100.00;100070.44;5039002;28;20047;-74
2023/06/14 00:59:52;;;;;;;4.82;1.30;;;;;;;17.82;100.00;100073.69;5045128;28;20485;-75
2023/06/14 01:02:18;;;;;;;4.22;1.70;;;;;;;17.84;100.00;100070.84;5043933;28;20033;-75
2023/06/14 01:04:47;;;;;;;3.00;1.80;;;;;;;17.72;100.00;100072.44;5033315;28;20044;-74
2023/06/14 01:07:37;;;;;;;4.50;1.63;;;;;;;17.61;100.00;100065.91;5047021;28;20029;-74
2023/06/14 01:10:08;;;;;;;4.60;1.55;;;;;;;17.84;99.77;100061.13;5044817;28;20492;-75
2023/06/14 01:12:48;;;;;;;3.60;1.20;;;;;;;18.04;95.77;100061.09;5038527;28;20044;-75
2023/06/14 01:15:14;;;;;;;4.15;1.25;;;;;;;18.15;94.56;100054.41;5043564;28;20028;-75
2023/06/14 01:17:43;;;;;;;5.90;1.45;;;;;;;18.21;91.62;100056.25;5041764;28;20463;-75
2023/06/14 01:20:14;;;;;;;4.13;1.48;;;;;;;18.27;91.59;100055.44;5044125;28;20044;-75
2023/06/14 01:23:06;;;;;;;4.53;1.42;;;;;;;18.39;83.67;100058.25;5044957;28;20037;-75
2023/06/14 01:25:31;;;;;;;2.00;1.25;;;;;;;18.42;89.48;100048.13;5050580;28;21801;-75
2023/06/14 01:28:03;;;;;;;2.47;1.55;;;;;;;18.35;91.08;100047.31;5049892;28;20115;-75
2023/06/14 01:30:30;;;;;;;2.60;1.33;;;;;;;18.20;92.50;100047.53;5050075;28;20045;-75
2023/06/14 01:32:57;;;;;;;4.25;1.30;;;;;;;18.08;95.78;100046.50;5043576;28;20029;-76
2023/06/14 01:35:23;;;;;;;3.58;1.73;;;;;;;17.84;98.98;100042.66;5053205;28;20029;-75
2023/06/14 01:37:50;;;;;;;5.43;1.88;;;;;;;17.51;100.00;100047.84;5038634;28;20025;-75
2023/06/14 01:40:17;;;;;;;3.85;2.40;;;;;;;17.35;100.00;100040.34;5049159;28;20033;-76
2023/06/14 01:42:46;;;;;;;4.22;1.70;;;;;;;17.24;100.00;100048.78;5042557;28;20051;-75
2023/06/14 01:45:11;;;;;;;4.38;2.30;;;;;;;17.13;100.00;100049.34;5044314;28;20550;-75
2023/06/14 01:47:37;;;;;;;3.78;2.40;;;;;;;17.02;100.00;100044.66;5045448;28;20029;-75
2023/06/14 01:50:03;;;;;;;2.88;1.88;;;;;;;16.92;100.00;100042.41;5046721;28;20041;-76
2023/06/14 01:52:29;;;;;;;5.07;2.80;;;;;;;16.77;100.00;100047.78;5045180;28;20048;-75
2023/06/14 01:54:55;;;;;;;5.65;2.40;;;;;;;16.69;100.00;100040.06;5046383;28;20045;-76
2023/06/14 01:57:22;;;;;;;3.67;1.90;;;;;;;16.63;100.00;100046.06;5039681;28;20048;-75
2023/06/14 01:59:48;;;;;;;6.07;2.22;;;;;;;16.57;100.00;100042.38;5048685;28;20087;-75
2023/06/14 02:02:15;;;;;;;3.88;2.65;;;;;;;16.48;100.00;100040.13;5047800;28;20052;-75
2023/06/14 02:04:41;;;;;;;3.20;1.50;;;;;;;16.44;100.00;100036.25;5039857;28;20048;-75
2023/06/14 02:07:06;;;;;;;7.72;2.13;;;;;;;16.45;100.00;100040.50;5047618;28;20033;-76
2023/06/14 02:09:32;;;;;;;3.83;1.98;;;;;;;16.38;100.00;100037.03;5041382;28;20392;-76
2023/06/14 02:11:57;;;;;;;3.08;2.05;;;;;;;16.32;100.00;100043.84;5035819;28;20473;-76
2023/06/14 02:14:24;;;;;;;3.88;1.85;;;;;;;16.20;100.00;100038.31;5040411;28;20030;-76
2023/06/14 02:16:49;;;;;;;3.85;2.35;;;;;;;16.47;100.00;100046.38;5035761;28;20052;-77
2023/06/14 02:19:16;;;;;;;3.40;2.03;;;;;;;16.52;100.00;100044.81;5048960;28;20056;-76
2023/06/14 02:21:42;;;;;;;2.97;2.00;;;;;;;16.48;100.00;100037.50;5046683;28;20055;-76
2023/06/14 02:24:08;;;;;;;5.38;2.15;;;;;;;16.46;100.00;100039.50;5045931;28;20029;-75
2023/06/14 02:26:33;;;;;;;2.40;1.60;;;;;;;16.45;100.00;100038.69;5044861;28;20446;-76
2023/06/14 02:28:58;;;;;;;4.18;2.05;;;;;;;16.35;100.00;100040.84;5045277;28;20072;-76
2023/06/14 02:31:25;;;;;;;3.28;2.05;;;;;;;16.34;100.00;100039.22;5041173;28;20044;-75
2023/06/14 02:33:50;;;;;;;5.07;2.17;;;;;;;16.26;100.00;100042.81;5049334;28;20032;-76
2023/06/14 02:36:16;;;;;;;3.40;1.50;;;;;;;16.25;100.00;100038.56;5038309;28;20034;-76
2023/06/14 02:38:41;;;;;;;2.28;1.17;;;;;;;16.43;100.00;100040.69;5035451;28;20393;-75
2023/06/14 02:41:07;;;;;;;8.35;1.70;;;;;;;16.70;100.00;100040.88;5038515;28;20385;-76
2023/06/14 02:43:32;;;;;;;2.22;1.40;;;;;;;16.98;100.00;100039.00;5041325;28;20094;-75
2023/06/14 02:45:58;;;;;;;3.95;1.33;;;;;;;17.13;100.00;100036.19;5052598;28;20040;-76
2023/06/14 02:48:23;;;;;;;2.92;1.77;;;;;;;17.19;100.00;100038.03;5040625;28;20535;-76
2023/06/14 02:50:48;;;;;;;3.08;1.63;;;;;;;17.08;100.00;100030.72;5053542;28;20128;-75
2023/06/14 02:53:14;;;;;;;3.00;1.38;;;;;;;17.13;100.00;100037.00;5043983;28;20036;-75
2023/06/14 02:55:40;;;;;;;2.92;1.58;;;;;;;17.23;100.00;100036.63;5045180;28;20037;-76
2023/06/14 02:58:06;;;;;;;2.97;1.40;;;;;;;17.25;100.00;100030.16;5050101;28;20036;-76
2023/06/14 03:00:31;;;;;;;2.00;1.30;;;;;;;17.28;100.00;100028.97;5051528;28;20067;-76
2023/06/14 03:02:57;;;;;;;2.50;1.15;;;;;;;17.20;100.00;100029.13;5055218;28;20469;-75
2023/06/14 03:05:23;;;;;;;7.70;1.65;;;;;;;17.19;100.00;100024.88;5045145;28;20082;-75
2023/06/14 03:07:50;;;;;;;3.15;1.60;;;;;;;17.22;100.00;100037.66;5046330;28;20029;-76
2023/06/14 03:10:15;;;;;;;3.63;1.50;;;;;;;17.12;100.00;100037.22;5045640;28;20076;-75
2023/06/14 03:12:41;;;;;;;5.60;1.58;;;;;;;17.00;100.00;100042.25;5051818;28;20041;-75
2023/06/14 03:15:07;;;;;;;4.30;1.70;;;;;;;16.84;100.00;100040.75;5044986;28;20037;-76
2023/06/14 03:17:34;;;;;;;3.58;1.80;;;;;;;16.64;100.00;100038.97;5040735;28;20052;-76
2023/06/14 03:20:00;;;;;;;5.28;1.58;;;;;;;16.61;100.00;100040.19;5052799;28;20040;-76
2023/06/14 03:22:25;;;;;;;3.35;2.13;;;;;;;16.60;100.00;100042.00;5055255;28;20079;-76
2023/06/14 03:24:52;;;;;;;4.18;1.58;;;;;;;16.56;100.00;100040.75;5050983;28;20021;-75
2023/06/14 03:27:18;;;;;;;3.40;1.58;;;;;;;16.54;100.00;100042.00;5046872;28;20090;-76
2023/06/14 03:29:44;;;;;;;6.00;1.83;;;;;;;16.46;100.00;100044.75;5044296;28;20045;-75
2023/06/14 03:32:09;;;;;;;2.72;1.65;;;;;;;16.39;100.00;100043.91;5043768;28;20041;-75
2023/06/14 03:34:35;;;;;;;6.40;1.80;;;;;;;16.46;100.00;100040.31;5047246;28;20087;-75
2023/06/14 03:37:01;;;;;;;4.50;1.83;;;;;;;16.59;100.00;100045.63;5047526;28;20029;-75
2023/06/14 03:39:26;;;;;;;2.05;1.80;;;;;;;16.89;100.00;100043.63;5046526;28;20422;-76
2023/06/14 03:41:52;;;;;;;3.30;1.65;;;;;;;17.06;100.00;100045.88;5044243;28;20442;-74
2023/06/14 03:44:18;;;;;;;2.95;1.40;;;;;;;17.23;99.13;100053.25;5046714;28;20048;-75
2023/06/14 03:46:45;;;;;;;1.98;1.35;;;;;;;17.37;97.32;100051.47;5041597;28;20499;-74
2023/06/14 03:49:11;;;;;;;2.22;0.90;;;;;;;17.44;95.83;100054.13;5047910;28;20072;-75
2023/06/14 03:51:36;;;;;;;5.18;1.33;;;;;;;17.47;95.66;100054.53;5051163;28;20107;-75
2023/06/14 03:54:02;;;;;;;5.15;1.33;;;;;;;17.49;95.73;100060.41;5048047;28;20031;-76
2023/06/14 03:56:27;;;;;;;3.90;1.88;;;;;;;17.39;99.15;100059.19;5045306;28;20029;-75
2023/06/14 03:58:53;;;;;;;2.00;1.52;;;;;;;17.18;100.00;100053.03;5049796;28;20434;-72
2023/06/14 04:01:18;;;;;;;1.95;1.70;;;;;;;17.13;100.00;100059.88;5042796;28;20444;-72
2023/06/14 04:03:44;;;;;;;5.10;1.33;;;;;;;17.12;99.47;100055.63;5050822;28;20036;-72
2023/06/14 04:06:09;;;;;;;4.03;1.70;;;;;;;17.20;99.69;100063.38;5041976;28;20076;-72
2023/06/14 04:08:35;;;;;;;2.45;1.77;;;;;;;17.29;99.64;100066.63;5046216;28;20052;-72
2023/06/14 04:11:01;;;;;;;3.05;1.73;;;;;;;17.28;100.00;100065.81;5054051;28;20120;-72
2023/06/14 04:13:27;;;;;;;3.47;1.48;;;;;;;17.18;100.00;100066.19;5037122;28;20037;-72
2023/06/14 04:15:52;;;;;;;5.55;1.90;;;;;;;17.09;100.00;100077.91;5033118;28;20040;-71
2023/06/14 04:18:19;;;;;;;3.58;1.70;;;;;;;17.05;100.00;100075.84;5044023;28;20033;-72
2023/06/14 04:20:45;;;;;;;8.15;2.40;;;;;;;17.08;100.00;100075.44;5035572;28;20059;-72
2023/06/14 04:23:17;;;;;;;8.02;2.30;;;;;;;17.16;100.00;100081.38;5051939;28;20159;-72
2023/06/14 04:25:45;;;;;;;3.30;1.55;;;;;;;17.24;100.00;100075.13;5047966;28;20120;-71
2023/06/14 04:28:18;;;;;;;3.55;1.45;;;;;;;17.22;100.00;100082.41;5041560;28;20128;-72
2023/06/14 04:30:44;;;;;;;2.88;1.52;;;;;;;17.28;100.00;100092.16;5051567;28;20036;-72
2023/06/14 04:33:10;;;;;;;4.45;2.00;;;;;;;17.33;100.00;100081.03;5043991;28;20041;-72
2023/06/14 04:35:37;;;;;;;4.47;1.63;;;;;;;17.40;100.00;100085.31;5035432;28;20099;-72
2023/06/14 04:38:04;;;;;;;3.25;1.92;;;;;;;17.44;100.00;100085.72;5048866;28;20029;-72
2023/06/14 04:40:31;;;;;;;5.03;2.03;;;;;;;17.50;100.00;100085.72;5054045;28;20096;-71
2023/06/14 04:42:57;;;;;;;3.47;1.40;;;;;;;17.61;100.00;100081.72;5041951;28;20477;-70
2023/06/14 04:45:23;;;;;;;3.92;1.50;;;;;;;17.71;100.00;100091.91;5040833;28;20047;-70
2023/06/14 04:47:50;;;;;;;2.35;1.50;;;;;;;17.84;100.00;100086.66;5039675;28;20025;-70
2023/06/14 04:50:18;;;;;;;4.10;1.40;;;;;;;17.86;100.00;100089.91;5037965;28;20158;-70
2023/06/14 04:52:43;;;;;;;3.25;1.48;;;;;;;17.94;100.00;100081.81;5039187;28;20397;-70
2023/06/14 04:55:09;;;;;;;2.92;1.52;;;;;;;18.08;99.41;100080.78;5033380;28;20033;-70
2023/06/14 04:57:35;;;;;;;6.32;1.67;;;;;;;18.27;98.42;100075.72;5040183;28;20045;-70
2023/06/14 05:00:04;;;;;;;4.93;1.92;;;;;;;18.34;96.61;100085.25;5034580;28;20036;-70
2023/06/14 05:02:30;;;;;;;3.67;1.67;;;;;;;18.48;96.82;100086.03;5035570;28;20508;-70
2023/06/14 05:04:56;;;;;;;1.90;1.20;;;;;;;18.48;96.02;100093.94;5034775;28;20021;-70
2023/06/14 05:07:23;;;;;;;3.10;1.20;;;;;;;18.49;94.75;100090.28;5043533;28;20037;-70
2023/06/14 05:09:49;;;;;;;7.22;1.48;;;;;;;18.62;94.20;100087.66;5043258;28;20033;-70
2023/06/14 05:12:18;;;;;;;5.35;1.50;;;;;;;18.76;93.12;100091.91;5043027;28;20029;-70
2023/06/14 05:14:43;;;;;;;3.53;1.50;;;;;;;18.94;93.97;100096.50;5037226;28;20126;-71
2023/06/14 05:17:09;;;;;;;3.70;1.55;;;;;;;19.14;95.59;100099.91;5035474;28;20124;-71
2023/06/14 05:19:34;;;;;;;3.17;1.60;;;;;;;19.23;94.33;100092.56;5039765;28;20033;-71
2023/06/14 05:22:00;;;;;;;5.28;1.05;;;;;;;19.27;93.61;100100.88;5046699;28;20056;-71
2023/06/14 05:24:25;;;;;;;4.53;1.10;;;;;;;19.44;92.28;100099.34;5036941;28;20124;-71
2023/06/14 05:26:51;;;;;;;3.20;1.27;;;;;;;19.54;89.20;100107.66;5041157;28;20044;-71
2023/06/14 05:29:16;;;;;;;4.43;1.73;;;;;;;19.63;88.40;100113.53;5042867;28;20400;-71
2023/06/14 05:31:42;;;;;;;2.20;1.08;;;;;;;19.68;89.41;100116.34;5044429;28;20115;-70
2023/06/14 05:34:07;;;;;;;3.67;1.35;;;;;;;19.73;89.56;100111.22;5043130;28;20029;-70
2023/06/14 05:36:32;;;;;;;3.70;1.30;;;;;;;19.88;88.36;100115.19;5042237;28;20473;-70
2023/06/14 05:38:59;;;;;;;2.80;1.63;;;;;;;19.84;86.66;100113.22;5045789;28;20449;-71
2023/06/14 05:41:28;;;;;;;4.47;1.55;;;;;;;19.72;85.42;100117.53;5040622;28;20440;-71
2023/06/14 05:43:55;;;;;;;3.95;1.67;;;;;;;19.67;89.21;100120.00;5046245;28;20041;-71
2023/06/14 05:46:25;;;;;;;5.60;1.42;;;;;;;19.65;89.54;100122.06;5048635;28;20060;-71
2023/06/14 05:48:54;;;;;;;1.20;1.00;;;;;;;19.62;88.57;100122.47;5048151;28;20082;-70
2023/06/14 05:51:19;;;;;;;2.85;1.25;;;;;;;19.61;88.54;100118.22;5046635;28;20056;-72
2023/06/14 05:53:46;;;;;;;3.28;1.17;;;;;;;19.68;89.23;100124.28;5048393;28;20021;-72
2023/06/14 05:56:12;;;;;;;2.13;1.13;;;;;;;19.76;91.25;100126.66;5048722;28;20033;-72
2023/06/14 05:58:37;;;;;;;5.25;1.83;;;;;;;19.82;94.66;100131.09;5048999;28;20034;-72
2023/06/14 06:01:03;;;;;;;3.80;1.63;;;;;;;19.80;94.47;100146.38;5048638;28;20558;-72
2023/06/14 06:03:32;;;;;;;5.28;1.30;;;;;;;19.79;93.54;100150.03;5047637;28;20064;-72
2023/06/14 06:05:58;;;;;;;3.00;1.60;;;;;;;19.82;94.95;100150.44;5051924;28;20025;-72
2023/06/14 06:08:23;;;;;;;3.05;1.15;;;;;;;19.84;95.77;100148.38;5054261;28;20028;-72
2023/06/14 06:10:49;;;;;;;3.40;1.58;;;;;;;19.85;96.07;100139.41;5049716;28;20029;-72
2023/06/14 06:13:15;;;;;;;2.75;0.98;;;;;;;19.86;96.14;100142.84;5041401;28;20033;-71
2023/06/14 06:15:41;;;;;;;2.03;1.30;;;;;;;19.89;96.58;100145.06;5051343;28;20131;-70
2023/06/14 06:18:06;;;;;;;4.20;1.35;;;;;;;19.94;96.61;100152.38;5050624;28;20048;-72
2023/06/14 06:20:32;;;;;;;4.45;1.13;;;;;;;19.95;96.50;100154.81;5050505;28;20397;-70
2023/06/14 06:22:58;;;;;;;4.53;1.40;;;;;;;19.99;95.26;100161.28;5050117;28;20064;-71
2023/06/14 06:25:25;;;;;;;5.30;1.33;;;;;;;20.03;95.09;100159.84;5047102;28;20075;-70
2023/06/14 06:27:52;;;;;;;4.60;1.42;;;;;;;20.07;94.72;100155.75;5041804;28;20042;-71
2023/06/14 06:30:18;;;;;;;4.50;1.50;;;;;;;20.14;93.89;100158.34;5055609;28;20035;-70
2023/06/14 06:32:43;;;;;;;4.22;1.10;;;;;;;20.24;92.92;100163.97;5046027;28;20024;-70
2023/06/14 06:35:10;;;;;;;4.60;1.10;;;;;;;20.34;91.99;100168.75;5048962;28;20107;-70
2023/06/14 06:37:36;;;;;;;2.67;1.10;;;;;;;20.37;91.20;100168.34;5049533;28;20469;-70
2023/06/14 06:40:03;;;;;;;3.78;1.10;;;;;;;20.33;91.02;100169.78;5047868;28;20086;-71
2023/06/14 06:42:29;;;;;;;5.68;1.00;;;;;;;20.31;91.33;100174.50;5045310;28;20036;-71
2023/06/14 06:44:55;;;;;;;2.45;1.00;;;;;;;20.27;92.05;100181.25;5044688;28;20064;-71
2023/06/14 06:47:20;;;;;;;2.17;1.10;;;;;;;20.28;93.07;100174.94;5049014;28;20452;-70
2023/06/14 06:49:45;;;;;;;4.38;1.50;;;;;;;20.29;93.04;100181.84;5048120;28;20111;-70
2023/06/14 06:52:11;;;;;;;4.35;1.30;;;;;;;20.28;92.02;100188.16;5048863;28;20047;-70
2023/06/14 06:54:36;;;;;;;3.13;1.33;;;;;;;20.28;92.13;100196.09;5049522;28;20037;-70
2023/06/14 06:57:02;;;;;;;2.83;1.25;;;;;;;20.26;91.79;100187.56;5047117;28;20056;-71
2023/06/14 06:59:28;;;;;;;5.68;1.27;;;;;;;20.20;90.96;100184.75;5042533;28;20022;-70
2023/06/14 07:01:53;;;;;;;2.70;1.27;;;;;;;20.18;89.74;100186.00;5051819;28;20029;-70
2023/06/14 07:04:19;;;;;;;2.17;1.15;;;;;;;20.17;89.40;100185.19;5050772;28;20083;-71
2023/06/14 07:06:46;;;;;;;3.65;1.42;;;;;;;20.13;88.12;100186.63;5049808;28;20022;-70
2023/06/14 07:09:13;;;;;;;2.55;1.77;;;;;;;20.14;88.72;100184.78;5049606;28;20039;-71
2023/06/14 07:11:39;;;;;;;2.05;1.30;;;;;;;20.10;87.87;100196.81;5048454;28;20064;-70
2023/06/14 07:14:05;;;;;;;2.83;1.20;;;;;;;20.11;86.04;100186.03;5038968;28;20057;-71
2023/06/14 07:16:30;;;;;;;3.65;1.45;;;;;;;20.15;85.79;100189.88;5037082;28;20034;-70
2023/06/14 07:18:56;;;;;;;1.70;1.38;;;;;;;20.17;86.93;100197.59;5049821;28;20025;-69
2023/06/14 07:21:21;;;;;;;4.35;1.60;;;;;;;20.18;88.43;100193.94;5044112;28;20036;-70
2023/06/14 07:23:47;;;;;;;4.28;1.30;;;;;;;20.17;88.64;100193.13;5047199;28;20029;-70
2023/06/14 07:26:12;;;;;;;1.75;1.00;;;;;;;20.20;88.47;100184.75;5050321;28;20423;-71
2023/06/14 07:28:38;;;;;;;2.92;1.40;;;;;;;20.26;89.49;100192.84;5043442;28;20036;-69
2023/06/14 07:31:03;;;;;;;3.35;1.23;;;;;;;20.27;82.35;100189.19;5047708;28;20409;-70
2023/06/14 07:33:28;;;;;;;3.08;1.08;;;;;;;20.37;81.21;100189.50;5047325;28;20496;-70
2023/06/14 07:35:54;;;;;;;1.90;1.00;;;;;;;20.38;80.90;100188.50;5048233;28;20102;-70
2023/06/14 07:38:20;;;;;;;3.35;0.90;;;;;;;20.37;81.47;100192.16;5043891;28;20067;-70
2023/06/14 07:40:45;;;;;;;4.05;1.50;;;;;;;20.41;80.81;100190.72;5049419;28;20052;-70
2023/06/14 07:43:11;;;;;;;2.97;1.20;;;;;;;20.44;79.20;100185.00;5046818;28;20072;-71
2023/06/14 07:45:37;;;;;;;4.32;1.45;;;;;;;20.50;76.43;100189.44;5049597;28;20048;-70
2023/06/14 07:48:03;;;;;;;5.93;1.70;;;;;;;20.59;76.82;100185.50;5052231;28;20036;-70
2023/06/14 07:50:28;;;;;;;2.85;1.25;;;;;;;20.67;75.76;100190.53;5045429;28;20032;-70
2023/06/14 07:52:54;;;;;;;2.47;0.88;;;;;;;20.71;75.38;100185.63;5048889;28;20113;-70
2023/06/14 07:55:20;;;;;;;2.08;1.52;;;;;;;20.80;74.35;100200.97;5043122;28;20048;-70
2023/06/14 07:57:46;;;;;;;4.30;1.48;;;;;;;20.82;72.62;100192.81;5050571;28;20366;-70
2023/06/14 08:00:15;;;;;;;1.90;1.05;;;;;;;20.87;73.82;100200.91;5047567;28;20142;-70
2023/06/14 08:02:42;;;;;;;3.28;1.58;;;;;;;20.95;72.63;100200.63;5049728;28;20065;-70
2023/06/14 08:05:13;;;;;;;2.95;1.13;;;;;;;21.01;72.27;100198.97;5051292;28;20031;-70
2023/06/14 08:07:40;;;;;;;3.53;1.20;;;;;;;21.05;73.47;100200.97;5045360;28;20043;-70
2023/06/14 08:10:06;;;;;;;5.72;1.23;;;;;;;21.11;73.64;100194.78;5045603;28;20080;-70
2023/06/14 08:12:34;;;;;;;2.63;1.33;;;;;;;21.20;72.43;100192.66;5047150;28;20047;-70
2023/06/14 08:15:00;;;;;;;4.32;1.30;;;;;;;21.29;72.19;100193.19;5045753;28;20044;-70
2023/06/14 08:17:25;;;;;;;4.13;1.00;;;;;;;21.44;70.29;100191.78;5045863;28;20034;-70
2023/06/14 08:19:51;;;;;;;3.25;0.88;;;;;;;21.72;72.63;100187.78;5043703;28;20033;-70
2023/06/14 08:22:17;;;;;;;2.33;1.60;;;;;;;21.82;71.37;100193.34;5045713;28;20037;-70
2023/06/14 08:24:44;;;;;;;3.50;1.48;;;;;;;21.83;71.50;100190.47;5043647;28;20036;-69
2023/06/14 08:27:10;;;;;;;3.28;1.42;;;;;;;21.81;70.93;100195.19;5044892;28;20096;-70
2023/06/14 08:29:36;;;;;;;3.22;1.30;;;;;;;21.92;69.66;100188.31;5047786;28;20024;-70
2023/06/14 08:32:02;;;;;;;2.00;1.33;;;;;;;22.12;69.19;100191.53;5049323;28;20052;-70
2023/06/14 08:34:28;;;;;;;2.03;1.10;;;;;;;22.26;66.02;100193.97;5050182;28;20028;-70
2023/06/14 08:36:53;;;;;;;4.05;1.27;;;;;;;22.26;67.84;100193.97;5043378;28;20548;-70
2023/06/14 08:39:18;;;;;;;2.17;1.20;;;;;;;22.22;68.64;100195.47;5048464;28;20033;-70
2023/06/14 08:41:48;;;;;;;2.42;1.17;;;;;;;22.14;68.49;100201.91;5047115;28;20052;-70
2023/06/14 08:44:15;;;;;;;11.75;1.40;;;;;;;22.05;70.02;100201.44;5048093;28;20049;-70
2023/06/14 08:46:42;;;;;;;3.85;1.33;;;;;;;22.07;70.33;100199.34;5048496;28;20075;-70
2023/06/14 08:49:11;;;;;;;3.05;0.93;;;;;;;21.95;70.78;100203.78;5045811;28;20055;-71
2023/06/14 08:51:37;;;;;;;2.95;0.93;;;;;;;21.84;70.35;100201.88;5048263;28;20029;-71
2023/06/14 08:54:03;;;;;;;4.45;1.23;;;;;;;21.89;71.90;100196.72;5048798;28;20510;-70
2023/06/14 08:56:30;;;;;;;3.78;1.00;;;;;;;21.99;71.07;100206.78;5047209;28;20072;-70
2023/06/14 08:58:57;;;;;;;4.05;1.38;;;;;;;22.45;68.64;100206.13;5050645;28;20025;-70
2023/06/14 09:01:24;;;;;;;2.08;1.15;;;;;;;22.98;65.49;100205.28;5045787;28;20033;-71
2023/06/14 09:03:50;;;;;;;3.45;1.05;;;;;;;23.46;64.32;100200.47;5048446;28;20033;-71
2023/06/14 09:06:19;;;;;;;3.35;1.42;;;;;;;23.83;64.50;100206.25;5048392;28;20025;-71
2023/06/14 09:08:46;;;;;;;1.70;1.00;;;;;;;23.76;65.14;100210.09;5047898;28;20029;-72
2023/06/14 09:11:18;;;;;;;1.58;1.00;;;;;;;23.25;62.85;100211.69;5047443;28;20071;-71
2023/06/14 09:13:45;;;;;;;1.98;0.90;;;;;;;22.99;66.79;100213.00;5040324;28;20025;-70
2023/06/14 09:16:11;;;;;;;4.07;1.15;;;;;;;22.92;65.69;100204.34;5054820;28;20034;-70
2023/06/14 09:18:38;;;;;;;3.95;1.40;;;;;;;23.23;63.91;100205.00;5048117;28;20127;-70
2023/06/14 09:21:07;;;;;;;5.25;1.02;;;;;;;23.82;61.88;100211.81;5047669;28;20091;-70
2023/06/14 09:23:43;;;;;;;2.25;1.10;;;;;;;24.48;61.42;100213.00;5044490;28;20032;-71
2023/06/14 09:26:11;;;;;;;5.57;1.50;;;;;;;24.75;62.46;100202.50;5045540;28;20035;-71
2023/06/14 09:28:42;;;;;;;1.73;0.70;;;;;;;24.73;61.22;100209.91;5045417;28;20477;-71
2023/06/14 09:31:09;;;;;;;5.25;1.17;;;;;;;24.67;60.95;100210.88;5048427;28;20029;-71
2023/06/14 09:33:35;;;;;;;2.13;1.13;;;;;;;24.53;61.52;100212.28;5043978;28;20403;-71
2023/06/14 09:36:01;;;;;;;3.40;1.00;;;;;;;24.38;63.04;100218.16;5048091;28;20029;-71
2023/06/14 09:38:26;;;;;;;1.60;0.98;;;;;;;24.73;64.25;100215.25;5048590;28;20029;-71
2023/06/14 09:40:52;;;;;;;3.95;1.38;;;;;;;24.51;64.39;100215.19;5051732;28;20087;-71
2023/06/14 09:43:18;;;;;;;1.48;1.23;;;;;;;24.45;64.90;100211.63;5048589;28;20415;-70
2023/06/14 09:45:48;;;;;;;2.60;1.02;;;;;;;24.63;63.47;100207.91;5050982;28;20491;-71
2023/06/14 09:48:17;;;;;;;2.75;1.02;;;;;;;24.51;62.76;100212.53;5046410;28;20511;-71
2023/06/14 09:50:46;;;;;;;2.78;1.35;;;;;;;24.16;63.81;100216.16;5051200;28;20047;-70
2023/06/14 09:53:12;;;;;;;3.08;1.52;;;;;;;23.99;64.23;100214.53;5046856;28;20115;-71
2023/06/14 09:55:40;;;;;;;1.70;0.90;;;;;;;24.00;64.66;100211.63;5051302;28;20067;-71
2023/06/14 09:58:07;;;;;;;3.38;0.85;;;;;;;23.98;67.02;100218.22;5050968;28;20033;-71
2023/06/14 10:00:34;;;;;;;1.77;0.90;;;;;;;23.59;64.69;100218.03;5051589;28;20051;-71
2023/06/14 10:03:06;;;;;;;1.90;1.13;;;;;;;23.47;65.10;100210.06;5052923;28;20032;-71
2023/06/14 10:05:35;;;;;;;1.52;1.08;;;;;;;23.65;63.60;100213.59;5051430;28;20021;-71
2023/06/14 10:08:05;;;;;;;5.43;0.93;;;;;;;23.73;62.28;100211.38;5049542;28;20037;-70
2023/06/14 10:10:31;;;;;;;1.80;1.17;;;;;;;24.04;62.46;100217.28;5050490;28;20396;-71
2023/06/14 10:12:56;;;;;;;1.67;1.10;;;;;;;24.03;62.94;100211.16;5051763;28;20033;-71
2023/06/14 10:15:52;;;;;;;2.13;1.00;;;;;;;24.51;59.61;100212.53;5044651;28;20033;-71
2023/06/14 10:18:22;;;;;;;2.83;2.13;;;;;;;24.77;60.87;100211.03;5047637;28;20429;-71
2023/06/14 10:21:13;;;;;;;1.70;0.90;;;;;;;24.51;57.45;100209.84;5050629;28;20032;-71
2023/06/14 10:23:42;;;;;;;4.20;0.73;;;;;;;24.69;60.87;100208.78;5050064;28;20097;-71
2023/06/14 10:26:08;;;;;;;1.42;1.10;;;;;;;24.44;59.04;100201.22;5049677;28;20063;-71
2023/06/14 10:28:37;;;;;;;3.72;1.15;;;;;;;24.03;59.18;100200.50;5046678;28;20466;-71
2023/06/14 10:31:10;;;;;;;4.22;1.23;;;;;;;24.06;60.12;100200.03;5050492;28;20048;-70
2023/06/14 10:33:40;;;;;;;2.90;0.95;;;;;;;24.05;58.19;100198.41;5047172;28;20025;-70
2023/06/14 10:36:10;;;;;;;2.75;1.20;;;;;;;23.89;56.91;100204.50;5044876;28;20064;-70
2023/06/14 10:38:37;;;;;;;3.20;1.00;;;;;;;23.81;57.95;100200.34;5049104;28;20029;-71
2023/06/14 10:41:03;;;;;;;1.92;1.10;;;;;;;23.76;57.47;100196.78;5051160;28;20052;-71
2023/06/14 10:43:29;;;;;;;5.28;0.85;;;;;;;23.80;57.92;100205.91;5043898;28;20037;-70
2023/06/14 10:46:13;;;;;;;1.25;0.75;;;;;;;23.71;56.67;100200.16;5049137;28;20029;-70
2023/06/14 10:48:43;;;;;;;6.03;1.40;;;;;;;23.54;57.02;100198.50;5048365;28;20440;-70
2023/06/14 10:51:22;;;;;;;3.88;1.25;;;;;;;23.53;58.02;100194.19;5043907;28;20037;-71
2023/06/14 10:53:49;;;;;;;3.90;0.85;;;;;;;23.52;59.34;100188.06;5049995;28;20029;-71
2023/06/14 10:56:28;;;;;;;3.63;1.20;;;;;;;23.48;58.40;100194.91;5034967;28;20481;-71
2023/06/14 10:58:59;;;;;;;2.78;0.85;;;;;;;23.44;60.86;100186.59;5036433;28;20045;-71
2023/06/14 11:01:59;;;;;;;2.13;1.13;;;;;;;23.46;56.75;100183.69;5050762;28;20048;-71
2023/06/14 11:04:46;;;;;;;1.98;0.98;;;;;;;23.41;57.88;100184.41;5035285;28;20128;-71
2023/06/14 11:07:51;;;;;;;2.15;1.30;;;;;;;23.37;55.15;100190.41;5034892;28;20428;-71
2023/06/14 11:10:43;;;;;;;3.47;0.90;;;;;;;23.36;58.51;100188.81;5035703;28;20057;-71
2023/06/14 11:13:09;;;;;;;1.52;0.90;;;;;;;23.44;59.70;100183.94;5038876;28;20495;-71
2023/06/14 11:15:37;;;;;;;1.45;0.68;;;;;;;23.67;58.32;100187.56;5035695;28;20041;-72
2023/06/14 11:18:06;;;;;;;2.10;1.10;;;;;;;23.96;56.68;100177.75;5034769;28;20124;-71
2023/06/14 11:20:33;;;;;;;1.95;1.20;;;;;;;24.21;57.51;100169.38;5048072;28;20036;-71
2023/06/14 11:22:59;;;;;;;2.08;0.95;;;;;;;24.60;59.60;100170.28;5042675;28;20033;-71